KHDE/HDE METAR and TAF weather

Enter ICAO airport designator
Station Type Date Time Source
KHDE METAR 2019/02/23 00:35 UTC NOAA

KHDE 230035Z AUTO 10009KT 5SM BR OVC012 M01/M01 A2992 RMK AO2 T10131015


Station Type Date Time Source
KHDE Decoded METAR 2019/02/23 00:35 UTC NOAA

Brewster Field Airport, NE, United States (KHDE) 40-27N 099-20W
Feb 22, 2019 - 07:35 PM EST / 2019.02.23 0035 UTC
Wind: from the E (100 degrees) at 10 MPH (9 KT):0
Visibility: 5 mile(s):0
Sky conditions: overcast
Weather: mist
Temperature: 29.7 F (-1.3 C)
Windchill: 21 F (-6 C):1
Dew Point: 29.3 F (-1.5 C)
Relative Humidity: 98%
Pressure (altimeter): 29.92 in. Hg (1013 hPa)
ob: KHDE 230035Z AUTO 10009KT 5SM BR OVC012 M01/M01 A2992 RMK AO2 T10131015
cycle: 0

Station Type Date Time Source
KHDE TAF UTC NOAA

Error!


Example: see airport list